sensor_id;sensor_type;location;lat;lon;timestamp;temperature;humidity
5617;DHT22;2830;50.656;7.568;2022-09-09T00:04:42;16.10;1.00
5617;DHT22;2830;50.656;7.568;2022-09-09T00:07:41;16.10;1.00
5617;DHT22;2830;50.656;7.568;2022-09-09T00:10:20;15.90;1.00
5617;DHT22;2830;50.656;7.568;2022-09-09T00:13:02;15.90;1.00
5617;DHT22;2830;50.656;7.568;2022-09-09T00:15:41;15.80;1.00
5617;DHT22;2830;50.656;7.568;2022-09-09T00:18:25;15.80;1.00
5617;DHT22;2830;50.656;7.568;2022-09-09T00:21:06;15.70;1.00
5617;DHT22;2830;50.656;7.568;2022-09-09T00:23:39;15.80;1.00
5617;DHT22;2830;50.656;7.568;2022-09-09T00:28:50;15.60;1.00
5617;DHT22;2830;50.656;7.568;2022-09-09T00:31:26;15.60;1.00
5617;DHT22;2830;50.656;7.568;2022-09-09T00:33:57;15.50;1.00
5617;DHT22;2830;50.656;7.568;2022-09-09T00:36:27;15.40;1.00
5617;DHT22;2830;50.656;7.568;2022-09-09T00:38:57;15.30;1.00
5617;DHT22;2830;50.656;7.568;2022-09-09T00:43:56;15.30;1.00
5617;DHT22;2830;50.656;7.568;2022-09-09T00:55:26;14.90;1.00
5617;DHT22;2830;50.656;7.568;2022-09-09T00:57:54;14.80;1.00
5617;DHT22;2830;50.656;7.568;2022-09-09T01:00:31;14.80;1.00
5617;DHT22;2830;50.656;7.568;2022-09-09T01:03:18;14.80;1.00
5617;DHT22;2830;50.656;7.568;2022-09-09T01:06:14;14.80;1.00
5617;DHT22;2830;50.656;7.568;2022-09-09T01:14:35;14.90;1.00
5617;DHT22;2830;50.656;7.568;2022-09-09T01:17:17;14.80;1.00
5617;DHT22;2830;50.656;7.568;2022-09-09T01:19:49;14.90;1.00
5617;DHT22;2830;50.656;7.568;2022-09-09T01:22:40;14.90;1.00
5617;DHT22;2830;50.656;7.568;2022-09-09T01:27:45;14.90;1.00
5617;DHT22;2830;50.656;7.568;2022-09-09T01:30:14;14.90;1.00
5617;DHT22;2830;50.656;7.568;2022-09-09T01:32:45;14.90;1.00
5617;DHT22;2830;50.656;7.568;2022-09-09T01:35:43;14.90;1.00
5617;DHT22;2830;50.656;7.568;2022-09-09T01:38:13;15.00;1.00
5617;DHT22;2830;50.656;7.568;2022-09-09T01:40:40;15.00;1.00
5617;DHT22;2830;50.656;7.568;2022-09-09T01:43:07;15.00;1.00
5617;DHT22;2830;50.656;7.568;2022-09-09T01:45:34;15.00;1.00
5617;DHT22;2830;50.656;7.568;2022-09-09T01:48:02;15.10;1.00
5617;DHT22;2830;50.656;7.568;2022-09-09T01:50:29;15.10;1.00
5617;DHT22;2830;50.656;7.568;2022-09-09T01:53:00;15.20;1.00
5617;DHT22;2830;50.656;7.568;2022-09-09T01:55:38;15.20;1.00
5617;DHT22;2830;50.656;7.568;2022-09-09T02:01:00;15.20;1.00
5617;DHT22;2830;50.656;7.568;2022-09-09T02:03:28;15.20;1.00
5617;DHT22;2830;50.656;7.568;2022-09-09T02:08:49;15.30;1.00
5617;DHT22;2830;50.656;7.568;2022-09-09T02:11:20;15.40;1.00
5617;DHT22;2830;50.656;7.568;2022-09-09T02:13:49;15.40;1.00
5617;DHT22;2830;50.656;7.568;2022-09-09T02:19:26;15.50;1.00
5617;DHT22;2830;50.656;7.568;2022-09-09T02:21:55;15.50;1.00
5617;DHT22;2830;50.656;7.568;2022-09-09T02:24:25;15.40;1.00
5617;DHT22;2830;50.656;7.568;2022-09-09T02:26:53;15.30;1.00
5617;DHT22;2830;50.656;7.568;2022-09-09T02:29:35;15.30;1.00
5617;DHT22;2830;50.656;7.568;2022-09-09T02:32:06;15.40;1.00
5617;DHT22;2830;50.656;7.568;2022-09-09T02:34:37;15.40;1.00
5617;DHT22;2830;50.656;7.568;2022-09-09T02:37:08;15.30;1.00
5617;DHT22;2830;50.656;7.568;2022-09-09T02:39:36;15.40;1.00
5617;DHT22;2830;50.656;7.568;2022-09-09T02:42:04;15.40;1.00
5617;DHT22;2830;50.656;7.568;2022-09-09T02:44:31;15.40;1.00
5617;DHT22;2830;50.656;7.568;2022-09-09T02:47:13;15.40;1.00
5617;DHT22;2830;50.656;7.568;2022-09-09T02:55:35;15.20;1.00
5617;DHT22;2830;50.656;7.568;2022-09-09T02:58:05;15.30;1.00
5617;DHT22;2830;50.656;7.568;2022-09-09T03:00:34;15.20;1.00
5617;DHT22;2830;50.656;7.568;2022-09-09T03:03:03;15.10;1.00
5617;DHT22;2830;50.656;7.568;2022-09-09T03:05:30;15.10;1.00
5617;DHT22;2830;50.656;7.568;2022-09-09T03:07:58;14.90;1.00
5617;DHT22;2830;50.656;7.568;2022-09-09T03:10:25;14.90;1.00
5617;DHT22;2830;50.656;7.568;2022-09-09T03:12:51;14.90;1.00
5617;DHT22;2830;50.656;7.568;2022-09-09T03:15:18;15.00;1.00
5617;DHT22;2830;50.656;7.568;2022-09-09T03:17:45;15.00;1.00
5617;DHT22;2830;50.656;7.568;2022-09-09T03:20:11;15.20;1.00
5617;DHT22;2830;50.656;7.568;2022-09-09T03:22:39;15.20;1.00
5617;DHT22;2830;50.656;7.568;2022-09-09T03:25:06;15.20;1.00
5617;DHT22;2830;50.656;7.568;2022-09-09T03:27:32;15.10;1.00
5617;DHT22;2830;50.656;7.568;2022-09-09T03:29:59;15.20;1.00
5617;DHT22;2830;50.656;7.568;2022-09-09T03:32:30;15.20;1.00
5617;DHT22;2830;50.656;7.568;2022-09-09T03:34:57;15.20;1.00
5617;DHT22;2830;50.656;7.568;2022-09-09T03:37:24;15.10;1.00
5617;DHT22;2830;50.656;7.568;2022-09-09T03:39:51;15.10;1.00
5617;DHT22;2830;50.656;7.568;2022-09-09T03:42:18;15.10;1.00
5617;DHT22;2830;50.656;7.568;2022-09-09T03:44:46;15.10;1.00
5617;DHT22;2830;50.656;7.568;2022-09-09T03:47:20;15.20;1.00
5617;DHT22;2830;50.656;7.568;2022-09-09T03:49:48;15.20;1.00
5617;DHT22;2830;50.656;7.568;2022-09-09T03:52:15;15.30;1.00
5617;DHT22;2830;50.656;7.568;2022-09-09T03:54:48;15.40;1.00
5617;DHT22;2830;50.656;7.568;2022-09-09T03:57:15;15.40;1.00
5617;DHT22;2830;50.656;7.568;2022-09-09T03:59:43;15.40;1.00
5617;DHT22;2830;50.656;7.568;2022-09-09T04:02:10;15.40;1.00
5617;DHT22;2830;50.656;7.568;2022-09-09T04:04:37;15.50;1.00
5617;DHT22;2830;50.656;7.568;2022-09-09T04:07:03;15.50;1.00
5617;DHT22;2830;50.656;7.568;2022-09-09T04:09:33;15.60;1.00
5617;DHT22;2830;50.656;7.568;2022-09-09T04:12:01;15.60;1.00
5617;DHT22;2830;50.656;7.568;2022-09-09T04:14:28;15.60;1.00
5617;DHT22;2830;50.656;7.568;2022-09-09T04:16:55;15.50;1.00
5617;DHT22;2830;50.656;7.568;2022-09-09T04:19:23;15.50;1.00
5617;DHT22;2830;50.656;7.568;2022-09-09T04:21:50;15.40;1.00
5617;DHT22;2830;50.656;7.568;2022-09-09T04:24:18;15.40;1.00
5617;DHT22;2830;50.656;7.568;2022-09-09T04:26:45;15.40;1.00
5617;DHT22;2830;50.656;7.568;2022-09-09T04:29:12;15.40;1.00
5617;DHT22;2830;50.656;7.568;2022-09-09T04:31:38;15.40;1.00
5617;DHT22;2830;50.656;7.568;2022-09-09T04:34:11;15.40;1.00
5617;DHT22;2830;50.656;7.568;2022-09-09T04:36:38;15.40;1.00
5617;DHT22;2830;50.656;7.568;2022-09-09T04:39:07;15.40;1.00
5617;DHT22;2830;50.656;7.568;2022-09-09T04:41:34;15.40;1.00
5617;DHT22;2830;50.656;7.568;2022-09-09T04:44:01;15.40;1.00
5617;DHT22;2830;50.656;7.568;2022-09-09T04:46:27;15.50;1.00
5617;DHT22;2830;50.656;7.568;2022-09-09T04:48:54;15.50;1.00
5617;DHT22;2830;50.656;7.568;2022-09-09T04:51:21;15.40;1.00
5617;DHT22;2830;50.656;7.568;2022-09-09T04:53:47;15.40;1.00
5617;DHT22;2830;50.656;7.568;2022-09-09T04:56:16;15.40;1.00
5617;DHT22;2830;50.656;7.568;2022-09-09T04:58:44;15.40;1.00
5617;DHT22;2830;50.656;7.568;2022-09-09T05:01:16;15.40;1.00
5617;DHT22;2830;50.656;7.568;2022-09-09T05:03:46;15.40;1.00
5617;DHT22;2830;50.656;7.568;2022-09-09T05:06:15;15.40;1.00
5617;DHT22;2830;50.656;7.568;2022-09-09T05:08:43;15.40;1.00
5617;DHT22;2830;50.656;7.568;2022-09-09T05:11:18;15.40;1.00
5617;DHT22;2830;50.656;7.568;2022-09-09T05:13:45;15.40;1.00
5617;DHT22;2830;50.656;7.568;2022-09-09T05:16:13;15.40;1.00
5617;DHT22;2830;50.656;7.568;2022-09-09T05:18:41;15.40;1.00
5617;DHT22;2830;50.656;7.568;2022-09-09T05:21:10;15.40;1.00
5617;DHT22;2830;50.656;7.568;2022-09-09T05:23:37;15.40;1.00
5617;DHT22;2830;50.656;7.568;2022-09-09T05:26:05;15.40;1.00
5617;DHT22;2830;50.656;7.568;2022-09-09T05:28:34;15.40;1.00
5617;DHT22;2830;50.656;7.568;2022-09-09T05:31:06;15.50;1.00
5617;DHT22;2830;50.656;7.568;2022-09-09T05:33:35;15.50;1.00
5617;DHT22;2830;50.656;7.568;2022-09-09T05:36:07;15.60;1.00
5617;DHT22;2830;50.656;7.568;2022-09-09T05:38:35;15.60;1.00
5617;DHT22;2830;50.656;7.568;2022-09-09T05:41:03;15.60;1.00
5617;DHT22;2830;50.656;7.568;2022-09-09T05:43:29;15.60;1.00
5617;DHT22;2830;50.656;7.568;2022-09-09T05:46:05;15.60;1.00
5617;DHT22;2830;50.656;7.568;2022-09-09T05:48:33;15.60;1.00
5617;DHT22;2830;50.656;7.568;2022-09-09T05:51:01;15.60;1.00
5617;DHT22;2830;50.656;7.568;2022-09-09T05:53:29;15.70;1.00
5617;DHT22;2830;50.656;7.568;2022-09-09T05:56:14;15.70;1.00
5617;DHT22;2830;50.656;7.568;2022-09-09T05:58:41;15.80;1.00
5617;DHT22;2830;50.656;7.568;2022-09-09T06:01:18;15.80;1.00
5617;DHT22;2830;50.656;7.568;2022-09-09T06:03:46;15.90;1.00
5617;DHT22;2830;50.656;7.568;2022-09-09T06:06:15;16.00;1.00
5617;DHT22;2830;50.656;7.568;2022-09-09T06:08:44;16.10;1.00
5617;DHT22;2830;50.656;7.568;2022-09-09T06:11:14;16.10;1.00
5617;DHT22;2830;50.656;7.568;2022-09-09T06:13:41;16.10;1.00
5617;DHT22;2830;50.656;7.568;2022-09-09T06:16:13;16.10;1.00
5617;DHT22;2830;50.656;7.568;2022-09-09T06:18:41;16.10;1.00
5617;DHT22;2830;50.656;7.568;2022-09-09T06:21:15;16.10;1.00
5617;DHT22;2830;50.656;7.568;2022-09-09T06:23:43;16.20;1.00
5617;DHT22;2830;50.656;7.568;2022-09-09T06:26:18;16.40;1.00
5617;DHT22;2830;50.656;7.568;2022-09-09T06:28:47;16.40;1.00
5617;DHT22;2830;50.656;7.568;2022-09-09T06:31:16;16.40;1.00
5617;DHT22;2830;50.656;7.568;2022-09-09T06:33:55;16.50;1.00
5617;DHT22;2830;50.656;7.568;2022-09-09T06:38:50;16.50;1.00
5617;DHT22;2830;50.656;7.568;2022-09-09T06:41:19;16.50;1.00
5617;DHT22;2830;50.656;7.568;2022-09-09T06:43:47;16.50;1.00
5617;DHT22;2830;50.656;7.568;2022-09-09T06:46:23;16.50;1.00
5617;DHT22;2830;50.656;7.568;2022-09-09T06:48:50;16.60;1.00
5617;DHT22;2830;50.656;7.568;2022-09-09T06:51:18;16.70;1.00
5617;DHT22;2830;50.656;7.568;2022-09-09T06:53:46;16.70;1.00
5617;DHT22;2830;50.656;7.568;2022-09-09T06:56:19;16.80;1.00
5617;DHT22;2830;50.656;7.568;2022-09-09T06:58:48;16.80;1.00
5617;DHT22;2830;50.656;7.568;2022-09-09T07:01:16;16.80;1.00
5617;DHT22;2830;50.656;7.568;2022-09-09T07:03:46;16.90;1.00
5617;DHT22;2830;50.656;7.568;2022-09-09T07:06:16;17.00;1.00
5617;DHT22;2830;50.656;7.568;2022-09-09T07:08:55;17.10;99.90
5617;DHT22;2830;50.656;7.568;2022-09-09T07:11:25;17.20;99.90
5617;DHT22;2830;50.656;7.568;2022-09-09T07:13:55;17.50;99.90
5617;DHT22;2830;50.656;7.568;2022-09-09T07:16:22;17.90;99.90
5617;DHT22;2830;50.656;7.568;2022-09-09T07:18:52;18.30;1.00
5617;DHT22;2830;50.656;7.568;2022-09-09T07:21:19;18.90;50.70
5617;DHT22;2830;50.656;7.568;2022-09-09T07:23:47;19.70;1.00
5617;DHT22;2830;50.656;7.568;2022-09-09T07:26:16;20.40;1.00
5617;DHT22;2830;50.656;7.568;2022-09-09T07:28:43;20.60;99.90
5617;DHT22;2830;50.656;7.568;2022-09-09T07:31:23;20.90;1.00
5617;DHT22;2830;50.656;7.568;2022-09-09T07:33:50;20.90;99.90
5617;DHT22;2830;50.656;7.568;2022-09-09T07:36:23;21.20;30.30
5617;DHT22;2830;50.656;7.568;2022-09-09T07:38:52;22.20;99.90
5617;DHT22;2830;50.656;7.568;2022-09-09T07:41:28;22.30;1.00
5617;DHT22;2830;50.656;7.568;2022-09-09T07:43:56;22.40;1.00
5617;DHT22;2830;50.656;7.568;2022-09-09T07:46:24;22.30;1.00
5617;DHT22;2830;50.656;7.568;2022-09-09T07:48:56;22.50;1.00
5617;DHT22;2830;50.656;7.568;2022-09-09T07:51:27;22.40;1.00
5617;DHT22;2830;50.656;7.568;2022-09-09T07:53:56;22.80;99.90
5617;DHT22;2830;50.656;7.568;2022-09-09T07:56:27;23.30;99.90
5617;DHT22;2830;50.656;7.568;2022-09-09T07:58:55;22.70;99.90
5617;DHT22;2830;50.656;7.568;2022-09-09T08:01:40;22.50;99.90
5617;DHT22;2830;50.656;7.568;2022-09-09T08:04:10;22.40;99.90
5617;DHT22;2830;50.656;7.568;2022-09-09T08:06:47;22.70;99.90
5617;DHT22;2830;50.656;7.568;2022-09-09T08:09:14;22.70;99.90
5617;DHT22;2830;50.656;7.568;2022-09-09T08:11:42;22.00;99.90
5617;DHT22;2830;50.656;7.568;2022-09-09T08:14:10;21.80;99.90
5617;DHT22;2830;50.656;7.568;2022-09-09T08:16:40;21.20;99.90
5617;DHT22;2830;50.656;7.568;2022-09-09T08:19:08;21.20;99.90
5617;DHT22;2830;50.656;7.568;2022-09-09T08:21:37;21.70;99.90
5617;DHT22;2830;50.656;7.568;2022-09-09T08:24:08;22.40;99.90
5617;DHT22;2830;50.656;7.568;2022-09-09T08:26:37;22.20;99.90
5617;DHT22;2830;50.656;7.568;2022-09-09T08:29:07;22.20;99.90
5617;DHT22;2830;50.656;7.568;2022-09-09T08:31:37;22.30;99.90
5617;DHT22;2830;50.656;7.568;2022-09-09T08:34:05;22.20;99.90
5617;DHT22;2830;50.656;7.568;2022-09-09T08:36:35;22.00;99.90
5617;DHT22;2830;50.656;7.568;2022-09-09T08:39:05;21.30;99.90
5617;DHT22;2830;50.656;7.568;2022-09-09T08:41:50;21.00;99.90
5617;DHT22;2830;50.656;7.568;2022-09-09T08:50:22;22.10;99.90
5617;DHT22;2830;50.656;7.568;2022-09-09T08:52:52;22.40;99.90
5617;DHT22;2830;50.656;7.568;2022-09-09T08:55:25;23.00;99.90
5617;DHT22;2830;50.656;7.568;2022-09-09T08:57:55;22.50;99.90
5617;DHT22;2830;50.656;7.568;2022-09-09T09:00:34;22.20;99.90
5617;DHT22;2830;50.656;7.568;2022-09-09T09:05:55;22.80;99.90
5617;DHT22;2830;50.656;7.568;2022-09-09T09:08:39;23.10;99.90
5617;DHT22;2830;50.656;7.568;2022-09-09T09:11:09;22.50;99.90
5617;DHT22;2830;50.656;7.568;2022-09-09T09:14:02;21.70;99.90
5617;DHT22;2830;50.656;7.568;2022-09-09T09:17:19;21.70;99.90
5617;DHT22;2830;50.656;7.568;2022-09-09T09:19:28;21.40;99.90
5617;DHT22;2830;50.656;7.568;2022-09-09T09:22:26;21.40;99.90
5617;DHT22;2830;50.656;7.568;2022-09-09T09:25:03;21.10;99.90
5617;DHT22;2830;50.656;7.568;2022-09-09T09:30:05;20.40;99.90
5617;DHT22;2830;50.656;7.568;2022-09-09T09:33:47;20.30;99.90
5617;DHT22;2830;50.656;7.568;2022-09-09T09:35:53;20.30;99.90
5617;DHT22;2830;50.656;7.568;2022-09-09T09:38:23;20.50;99.90
5617;DHT22;2830;50.656;7.568;2022-09-09T09:41:10;20.80;99.90
5617;DHT22;2830;50.656;7.568;2022-09-09T09:43:40;21.10;99.90
5617;DHT22;2830;50.656;7.568;2022-09-09T09:46:24;21.60;99.90
5617;DHT22;2830;50.656;7.568;2022-09-09T09:49:04;22.30;99.90
5617;DHT22;2830;50.656;7.568;2022-09-09T09:51:33;22.20;99.90
5617;DHT22;2830;50.656;7.568;2022-09-09T09:54:14;21.80;99.90
5617;DHT22;2830;50.656;7.568;2022-09-09T09:56:45;21.60;99.90
5617;DHT22;2830;50.656;7.568;2022-09-09T09:59:39;21.60;99.90
5617;DHT22;2830;50.656;7.568;2022-09-09T10:02:31;21.30;99.90
5617;DHT22;2830;50.656;7.568;2022-09-09T10:05:24;21.10;99.90
5617;DHT22;2830;50.656;7.568;2022-09-09T10:08:10;20.90;99.90
5617;DHT22;2830;50.656;7.568;2022-09-09T10:13:14;20.40;99.90
5617;DHT22;2830;50.656;7.568;2022-09-09T10:16:08;20.50;99.90
5617;DHT22;2830;50.656;7.568;2022-09-09T10:18:58;20.70;99.90
5617;DHT22;2830;50.656;7.568;2022-09-09T10:21:52;21.20;99.90
5617;DHT22;2830;50.656;7.568;2022-09-09T10:24:51;21.30;99.90
5617;DHT22;2830;50.656;7.568;2022-09-09T10:27:43;21.30;99.90
5617;DHT22;2830;50.656;7.568;2022-09-09T10:30:17;21.40;99.90
5617;DHT22;2830;50.656;7.568;2022-09-09T10:38:13;20.90;99.90
5617;DHT22;2830;50.656;7.568;2022-09-09T10:48:58;22.00;99.90
5617;DHT22;2830;50.656;7.568;2022-09-09T10:57:08;24.70;70.90
5617;DHT22;2830;50.656;7.568;2022-09-09T10:59:42;24.30;68.30
5617;DHT22;2830;50.656;7.568;2022-09-09T11:02:16;24.00;74.00
5617;DHT22;2830;50.656;7.568;2022-09-09T11:04:53;24.50;65.40
5617;DHT22;2830;50.656;7.568;2022-09-09T11:07:37;25.50;68.70
5617;DHT22;2830;50.656;7.568;2022-09-09T11:10:29;26.20;53.90
5617;DHT22;2830;50.656;7.568;2022-09-09T11:13:02;26.50;37.80
5617;DHT22;2830;50.656;7.568;2022-09-09T11:15:43;27.30;40.20
5617;DHT22;2830;50.656;7.568;2022-09-09T11:18:17;27.40;33.60
5617;DHT22;2830;50.656;7.568;2022-09-09T11:20:47;27.40;27.20
5617;DHT22;2830;50.656;7.568;2022-09-09T11:23:20;27.10;25.80
5617;DHT22;2830;50.656;7.568;2022-09-09T11:25:54;27.60;22.20
5617;DHT22;2830;50.656;7.568;2022-09-09T11:31:29;28.20;17.10
5617;DHT22;2830;50.656;7.568;2022-09-09T11:39:56;24.30;11.80
5617;DHT22;2830;50.656;7.568;2022-09-09T11:42:27;24.00;15.10
5617;DHT22;2830;50.656;7.568;2022-09-09T11:44:54;24.50;17.80
5617;DHT22;2830;50.656;7.568;2022-09-09T11:47:27;24.90;15.70
5617;DHT22;2830;50.656;7.568;2022-09-09T11:52:43;23.20;14.70
5617;DHT22;2830;50.656;7.568;2022-09-09T11:58:22;22.40;17.00
5617;DHT22;2830;50.656;7.568;2022-09-09T12:00:48;22.10;22.90
5617;DHT22;2830;50.656;7.568;2022-09-09T12:03:49;21.80;24.20
5617;DHT22;2830;50.656;7.568;2022-09-09T12:06:30;21.10;42.40
5617;DHT22;2830;50.656;7.568;2022-09-09T12:09:27;20.90;80.70
5617;DHT22;2830;50.656;7.568;2022-09-09T12:17:50;22.40;61.00
5617;DHT22;2830;50.656;7.568;2022-09-09T12:20:26;23.00;46.30
5617;DHT22;2830;50.656;7.568;2022-09-09T12:28:15;25.50;28.70
5617;DHT22;2830;50.656;7.568;2022-09-09T12:31:04;26.70;26.60
5617;DHT22;2830;50.656;7.568;2022-09-09T12:33:39;26.20;16.10
5617;DHT22;2830;50.656;7.568;2022-09-09T12:36:17;25.50;14.70
5617;DHT22;2830;50.656;7.568;2022-09-09T12:38:45;25.20;16.10
5617;DHT22;2830;50.656;7.568;2022-09-09T12:41:26;26.20;19.30
5617;DHT22;2830;50.656;7.568;2022-09-09T12:44:08;27.40;16.80
5617;DHT22;2830;50.656;7.568;2022-09-09T12:46:40;27.30;10.30
5617;DHT22;2830;50.656;7.568;2022-09-09T12:49:26;27.30;10.30
5617;DHT22;2830;50.656;7.568;2022-09-09T12:51:53;27.80;8.90
5617;DHT22;2830;50.656;7.568;2022-09-09T12:54:21;27.80;7.10
5617;DHT22;2830;50.656;7.568;2022-09-09T12:56:48;26.70;1.00
5617;DHT22;2830;50.656;7.568;2022-09-09T12:59:24;25.90;1.00
5617;DHT22;2830;50.656;7.568;2022-09-09T13:01:58;24.20;1.00
5617;DHT22;2830;50.656;7.568;2022-09-09T13:04:26;23.70;1.00
5617;DHT22;2830;50.656;7.568;2022-09-09T13:06:52;23.40;1.00
5617;DHT22;2830;50.656;7.568;2022-09-09T13:09:20;23.10;1.00
5617;DHT22;2830;50.656;7.568;2022-09-09T13:11:53;22.80;10.90
5617;DHT22;2830;50.656;7.568;2022-09-09T13:14:30;22.50;1.00
5617;DHT22;2830;50.656;7.568;2022-09-09T13:17:01;22.60;4.30
5617;DHT22;2830;50.656;7.568;2022-09-09T13:19:44;22.70;7.60
5617;DHT22;2830;50.656;7.568;2022-09-09T13:22:31;22.90;8.50
5617;DHT22;2830;50.656;7.568;2022-09-09T13:25:04;23.00;8.90
5617;DHT22;2830;50.656;7.568;2022-09-09T13:27:36;23.10;4.30
5617;DHT22;2830;50.656;7.568;2022-09-09T13:30:27;23.50;10.30
5617;DHT22;2830;50.656;7.568;2022-09-09T13:33:23;23.50;4.90
5617;DHT22;2830;50.656;7.568;2022-09-09T13:38:17;23.10;2.70
5617;DHT22;2830;50.656;7.568;2022-09-09T13:41:04;22.70;1.00
5617;DHT22;2830;50.656;7.568;2022-09-09T13:43:51;22.50;2.90
5617;DHT22;2830;50.656;7.568;2022-09-09T13:46:38;22.50;5.60
5617;DHT22;2830;50.656;7.568;2022-09-09T13:51:39;22.10;4.30
5617;DHT22;2830;50.656;7.568;2022-09-09T13:54:09;22.00;6.20
5617;DHT22;2830;50.656;7.568;2022-09-09T13:56:37;21.90;4.90
5617;DHT22;2830;50.656;7.568;2022-09-09T13:59:08;21.60;7.10
5617;DHT22;2830;50.656;7.568;2022-09-09T14:01:36;21.20;23.00
5617;DHT22;2830;50.656;7.568;2022-09-09T14:04:04;20.70;47.70
5617;DHT22;2830;50.656;7.568;2022-09-09T14:06:35;20.30;99.90
5617;DHT22;2830;50.656;7.568;2022-09-09T14:09:07;19.70;75.10
5617;DHT22;2830;50.656;7.568;2022-09-09T14:11:33;19.60;99.90
5617;DHT22;2830;50.656;7.568;2022-09-09T14:14:00;19.40;1.00
5617;DHT22;2830;50.656;7.568;2022-09-09T14:16:27;19.20;99.90
5617;DHT22;2830;50.656;7.568;2022-09-09T14:18:54;18.70;99.90
5617;DHT22;2830;50.656;7.568;2022-09-09T14:21:23;18.20;99.90
5617;DHT22;2830;50.656;7.568;2022-09-09T14:23:50;18.00;99.90
5617;DHT22;2830;50.656;7.568;2022-09-09T14:26:17;18.00;1.00
5617;DHT22;2830;50.656;7.568;2022-09-09T14:28:45;18.00;1.00
5617;DHT22;2830;50.656;7.568;2022-09-09T14:31:22;18.20;1.00
5617;DHT22;2830;50.656;7.568;2022-09-09T14:33:49;18.40;1.00
5617;DHT22;2830;50.656;7.568;2022-09-09T14:36:17;18.60;1.00
5617;DHT22;2830;50.656;7.568;2022-09-09T14:38:44;18.50;99.90
5617;DHT22;2830;50.656;7.568;2022-09-09T14:41:12;18.60;1.00
5617;DHT22;2830;50.656;7.568;2022-09-09T14:43:39;18.50;1.00
5617;DHT22;2830;50.656;7.568;2022-09-09T14:46:13;18.40;1.00
5617;DHT22;2830;50.656;7.568;2022-09-09T14:48:40;18.40;1.00
5617;DHT22;2830;50.656;7.568;2022-09-09T14:51:14;18.40;1.00
5617;DHT22;2830;50.656;7.568;2022-09-09T14:53:43;18.70;1.00
5617;DHT22;2830;50.656;7.568;2022-09-09T14:56:16;19.00;1.00
5617;DHT22;2830;50.656;7.568;2022-09-09T14:58:44;19.10;1.00
5617;DHT22;2830;50.656;7.568;2022-09-09T15:01:16;19.00;1.00
5617;DHT22;2830;50.656;7.568;2022-09-09T15:03:51;19.10;1.00
5617;DHT22;2830;50.656;7.568;2022-09-09T15:06:19;19.20;99.90
5617;DHT22;2830;50.656;7.568;2022-09-09T15:08:47;19.20;99.90
5617;DHT22;2830;50.656;7.568;2022-09-09T15:11:14;19.10;72.40
5617;DHT22;2830;50.656;7.568;2022-09-09T15:13:42;18.90;1.00
5617;DHT22;2830;50.656;7.568;2022-09-09T15:16:17;18.80;99.90
5617;DHT22;2830;50.656;7.568;2022-09-09T15:18:45;18.60;99.90
5617;DHT22;2830;50.656;7.568;2022-09-09T15:21:15;18.40;71.70
5617;DHT22;2830;50.656;7.568;2022-09-09T15:23:42;18.20;99.90
5617;DHT22;2830;50.656;7.568;2022-09-09T15:26:09;18.20;99.90
5617;DHT22;2830;50.656;7.568;2022-09-09T15:28:37;18.20;99.90
5617;DHT22;2830;50.656;7.568;2022-09-09T15:31:15;18.10;99.90
5617;DHT22;2830;50.656;7.568;2022-09-09T15:33:53;18.10;99.90
5617;DHT22;2830;50.656;7.568;2022-09-09T15:36:23;18.00;99.90
5617;DHT22;2830;50.656;7.568;2022-09-09T15:38:51;18.00;99.90
5617;DHT22;2830;50.656;7.568;2022-09-09T15:41:19;17.90;99.90
5617;DHT22;2830;50.656;7.568;2022-09-09T15:43:55;17.80;99.90
5617;DHT22;2830;50.656;7.568;2022-09-09T15:48:55;17.80;1.00
5617;DHT22;2830;50.656;7.568;2022-09-09T15:51:23;17.90;1.00
5617;DHT22;2830;50.656;7.568;2022-09-09T15:54:09;17.80;1.00
5617;DHT22;2830;50.656;7.568;2022-09-09T15:56:36;17.60;1.00
5617;DHT22;2830;50.656;7.568;2022-09-09T15:59:03;17.60;1.00
5617;DHT22;2830;50.656;7.568;2022-09-09T16:01:31;17.60;1.00
5617;DHT22;2830;50.656;7.568;2022-09-09T16:03:59;17.60;1.00
5617;DHT22;2830;50.656;7.568;2022-09-09T16:06:28;17.50;1.00
5617;DHT22;2830;50.656;7.568;2022-09-09T16:08:56;17.40;1.00
5617;DHT22;2830;50.656;7.568;2022-09-09T16:11:29;17.30;1.00
5617;DHT22;2830;50.656;7.568;2022-09-09T16:13:58;17.20;1.00
5617;DHT22;2830;50.656;7.568;2022-09-09T16:16:27;17.00;1.00
5617;DHT22;2830;50.656;7.568;2022-09-09T16:18:56;16.90;1.00
5617;DHT22;2830;50.656;7.568;2022-09-09T16:23:51;16.90;1.00
5617;DHT22;2830;50.656;7.568;2022-09-09T16:26:20;16.90;1.00
5617;DHT22;2830;50.656;7.568;2022-09-09T16:28:47;16.80;1.00
5617;DHT22;2830;50.656;7.568;2022-09-09T16:31:16;16.80;1.00
5617;DHT22;2830;50.656;7.568;2022-09-09T16:33:43;16.80;1.00
5617;DHT22;2830;50.656;7.568;2022-09-09T16:36:12;16.80;1.00
5617;DHT22;2830;50.656;7.568;2022-09-09T16:38:40;16.70;1.00
5617;DHT22;2830;50.656;7.568;2022-09-09T16:41:09;16.70;1.00
5617;DHT22;2830;50.656;7.568;2022-09-09T16:43:37;16.60;1.00
5617;DHT22;2830;50.656;7.568;2022-09-09T16:46:18;16.60;1.00
5617;DHT22;2830;50.656;7.568;2022-09-09T16:48:46;16.60;1.00
5617;DHT22;2830;50.656;7.568;2022-09-09T16:51:19;16.50;1.00
5617;DHT22;2830;50.656;7.568;2022-09-09T16:53:47;16.50;1.00
5617;DHT22;2830;50.656;7.568;2022-09-09T16:56:16;16.50;1.00
5617;DHT22;2830;50.656;7.568;2022-09-09T16:58:44;16.50;1.00
5617;DHT22;2830;50.656;7.568;2022-09-09T17:01:15;16.50;1.00
5617;DHT22;2830;50.656;7.568;2022-09-09T17:03:42;16.40;1.00
5617;DHT22;2830;50.656;7.568;2022-09-09T17:06:14;16.40;1.00
5617;DHT22;2830;50.656;7.568;2022-09-09T17:08:41;16.50;1.00
5617;DHT22;2830;50.656;7.568;2022-09-09T17:11:18;16.60;1.00
5617;DHT22;2830;50.656;7.568;2022-09-09T17:13:46;16.60;1.00
5617;DHT22;2830;50.656;7.568;2022-09-09T17:16:15;16.60;1.00
5617;DHT22;2830;50.656;7.568;2022-09-09T17:18:42;16.60;1.00
5617;DHT22;2830;50.656;7.568;2022-09-09T17:21:15;16.60;1.00
5617;DHT22;2830;50.656;7.568;2022-09-09T17:23:43;16.60;1.00
5617;DHT22;2830;50.656;7.568;2022-09-09T17:26:11;16.60;1.00
5617;DHT22;2830;50.656;7.568;2022-09-09T17:28:39;16.60;1.00
5617;DHT22;2830;50.656;7.568;2022-09-09T17:31:08;16.60;1.00
5617;DHT22;2830;50.656;7.568;2022-09-09T17:33:38;16.60;1.00
5617;DHT22;2830;50.656;7.568;2022-09-09T17:36:23;16.60;1.00
5617;DHT22;2830;50.656;7.568;2022-09-09T17:38:50;16.50;1.00
5617;DHT22;2830;50.656;7.568;2022-09-09T17:41:19;16.50;1.00
5617;DHT22;2830;50.656;7.568;2022-09-09T17:43:47;16.40;1.00
5617;DHT22;2830;50.656;7.568;2022-09-09T17:46:28;16.40;1.00
5617;DHT22;2830;50.656;7.568;2022-09-09T17:49:01;16.30;1.00
5617;DHT22;2830;50.656;7.568;2022-09-09T17:51:29;16.20;1.00
5617;DHT22;2830;50.656;7.568;2022-09-09T17:54:01;16.30;1.00
5617;DHT22;2830;50.656;7.568;2022-09-09T17:56:29;16.30;1.00
5617;DHT22;2830;50.656;7.568;2022-09-09T17:59:01;16.30;1.00
5617;DHT22;2830;50.656;7.568;2022-09-09T18:01:30;16.30;1.00
5617;DHT22;2830;50.656;7.568;2022-09-09T18:04:02;16.30;1.00
5617;DHT22;2830;50.656;7.568;2022-09-09T18:06:35;16.20;1.00
5617;DHT22;2830;50.656;7.568;2022-09-09T18:09:11;16.20;1.00
5617;DHT22;2830;50.656;7.568;2022-09-09T18:11:41;16.20;1.00
5617;DHT22;2830;50.656;7.568;2022-09-09T18:14:12;16.20;1.00
5617;DHT22;2830;50.656;7.568;2022-09-09T18:16:39;16.10;1.00
5617;DHT22;2830;50.656;7.568;2022-09-09T18:19:08;16.10;1.00
5617;DHT22;2830;50.656;7.568;2022-09-09T18:21:35;16.10;1.00
5617;DHT22;2830;50.656;7.568;2022-09-09T18:24:04;16.20;1.00
5617;DHT22;2830;50.656;7.568;2022-09-09T18:26:32;16.10;1.00
5617;DHT22;2830;50.656;7.568;2022-09-09T18:29:02;16.10;1.00
5617;DHT22;2830;50.656;7.568;2022-09-09T18:31:29;16.10;1.00
5617;DHT22;2830;50.656;7.568;2022-09-09T18:33:59;16.00;1.00
5617;DHT22;2830;50.656;7.568;2022-09-09T18:36:29;15.90;1.00